Terminal Aerodrome Forecast
Issued by NWS

Home | Current Version | Previous Version | Text Only | Print | Product List | Glossary On
Versions: 1 2 3 4 5 6 7 8 9 10 11 12 13 14
000
FTUS44 KMAF 181100 AAB
TAFPEQ
TAF AMD
KPEQ 181145Z 1812/1912 VRB03KT P6SM BKN020
      TEMPO 1812/1816 VRB15G25KT 6SM SHRA OVC018
     FM181600 06006KT P6SM SCT035 BKN130
     FM190100 09008KT P6SM OVC035=

USA.gov is the U.S. government's official web portal to all federal, state and local government web resources and services.